Time;durP1;ratioP1;P1;durP2;ratioP2;P2;SDS_P1;SDS_P2;PMS_P1;PMS_P2;Temp;Humidity;BMP_temperature;BMP_pressure;BME280_temperature;BME280_humidity;BME280_pressure;Samples;Min_cycle;Max_cycle;Signal;HPM_P1;HPM_P2
2021/09/09 04:32:23;;;;;;;17.40;13.00;;;14.80;99.90;;;;;;5317882;23;20581;-75
2021/09/09 04:34:49;;;;;;;13.63;12.03;;;14.80;99.90;;;;;;5021126;28;20501;-75
2021/09/09 04:37:15;;;;;;;14.50;12.90;;;14.80;99.90;;;;;;5030398;28;20631;-75
2021/09/09 04:39:40;;;;;;;15.73;12.30;;;14.80;99.90;;;;;;5053961;28;20412;-75
2021/09/09 04:42:06;;;;;;;18.00;12.10;;;14.80;99.90;;;;;;5053505;28;20213;-74
2021/09/09 04:44:32;;;;;;;17.27;13.43;;;14.80;99.90;;;;;;5053938;28;20212;-75
2021/09/09 04:46:58;;;;;;;16.93;12.70;;;14.90;99.90;;;;;;5053884;28;20645;-75
2021/09/09 04:49:23;;;;;;;13.97;12.20;;;14.90;99.90;;;;;;5054028;28;20173;-75
2021/09/09 04:51:49;;;;;;;21.80;13.03;;;14.90;99.90;;;;;;5035948;28;20462;-76
2021/09/09 04:54:14;;;;;;;14.10;11.97;;;14.80;99.90;;;;;;5046811;28;20239;-75
2021/09/09 04:56:40;;;;;;;17.27;13.97;;;14.80;99.90;;;;;;5033794;28;20189;-75
2021/09/09 04:59:06;;;;;;;14.60;10.97;;;14.80;99.90;;;;;;5033658;28;20287;-75
2021/09/09 05:01:31;;;;;;;15.83;11.27;;;14.80;99.90;;;;;;5033515;28;20217;-78
2021/09/09 05:03:57;;;;;;;16.73;11.43;;;14.80;99.90;;;;;;5033212;28;20869;-78
2021/09/09 05:06:22;;;;;;;13.10;11.07;;;14.70;99.90;;;;;;5033484;28;20174;-79
2021/09/09 05:08:48;;;;;;;15.97;13.17;;;14.70;99.90;;;;;;5033516;28;20182;-79
2021/09/09 05:11:16;;;;;;;13.47;12.07;;;14.70;99.90;;;;;;5015395;28;20275;-78
2021/09/09 05:13:42;;;;;;;18.93;12.87;;;14.70;99.90;;;;;;5033480;28;20432;-78
2021/09/09 05:16:08;;;;;;;14.70;12.10;;;14.70;99.90;;;;;;5033278;28;20500;-75
2021/09/09 05:18:34;;;;;;;13.47;11.10;;;14.70;99.90;;;;;;5033268;28;20204;-76
2021/09/09 05:20:59;;;;;;;13.00;11.60;;;14.70;99.90;;;;;;5032915;28;20195;-76
2021/09/09 05:23:25;;;;;;;15.17;12.80;;;14.70;99.90;;;;;;5033215;28;20182;-75
2021/09/09 05:25:52;;;;;;;13.50;11.77;;;14.70;99.90;;;;;;5032887;28;20470;-76
2021/09/09 05:28:17;;;;;;;13.20;11.30;;;14.70;99.90;;;;;;5032984;28;20186;-75
2021/09/09 05:30:43;;;;;;;16.50;13.13;;;14.80;99.90;;;;;;5039095;28;20876;-75
2021/09/09 05:33:09;;;;;;;15.23;11.40;;;14.90;99.90;;;;;;5052683;28;20185;-75
2021/09/09 05:35:34;;;;;;;15.60;13.00;;;14.90;99.90;;;;;;5052372;28;20256;-76
2021/09/09 05:38:00;;;;;;;13.47;12.10;;;14.90;99.90;;;;;;5052628;28;20184;-75
2021/09/09 05:40:26;;;;;;;16.57;11.93;;;15.00;99.90;;;;;;5052559;28;20181;-76
2021/09/09 05:42:52;;;;;;;14.80;12.33;;;15.00;99.90;;;;;;5052528;28;20816;-76
2021/09/09 05:45:18;;;;;;;17.20;13.30;;;15.20;99.90;;;;;;5034981;28;20184;-76
2021/09/09 05:47:44;;;;;;;19.90;13.80;;;15.20;99.90;;;;;;5052666;28;20491;-76
2021/09/09 05:50:10;;;;;;;14.40;11.73;;;15.40;99.90;;;;;;5052209;28;20416;-76
2021/09/09 05:52:36;;;;;;;14.97;12.30;;;15.50;99.90;;;;;;5052203;28;20197;-76
2021/09/09 05:55:02;;;;;;;16.20;12.83;;;15.70;99.90;;;;;;5052208;28;20414;-75
2021/09/09 05:57:27;;;;;;;17.17;11.87;;;15.90;99.90;;;;;;5034311;28;20545;-76
2021/09/09 05:59:53;;;;;;;17.30;12.50;;;16.20;99.90;;;;;;5052249;28;20485;-76
2021/09/09 06:02:19;;;;;;;15.97;11.00;;;16.40;99.90;;;;;;5051853;28;20502;-76
2021/09/09 06:04:48;;;;;;;18.00;11.77;;;16.70;99.90;;;;;;5052076;28;20645;-76
2021/09/09 06:07:14;;;;;;;16.47;11.27;;;17.10;99.90;;;;;;5053922;28;20418;-75
2021/09/09 06:09:40;;;;;;;16.17;11.73;;;17.60;99.90;;;;;;5054066;28;20408;-76
2021/09/09 06:12:06;;;;;;;14.47;11.73;;;18.10;99.90;;;;;;5051675;28;21012;-76
2021/09/09 06:14:33;;;;;;;17.63;11.97;;;18.50;99.90;;;;;;5037117;28;20424;-76
2021/09/09 06:16:59;;;;;;;18.63;10.33;;;19.10;99.90;;;;;;5031162;28;20424;-77
2021/09/09 06:19:25;;;;;;;19.13;11.80;;;19.60;99.90;;;;;;5032115;28;20432;-76
2021/09/09 06:21:51;;;;;;;19.83;11.00;;;20.20;99.90;;;;;;5031803;28;20214;-77
2021/09/09 06:24:16;;;;;;;16.43;9.60;;;20.70;99.90;;;;;;5031821;28;20171;-77
2021/09/09 06:26:42;;;;;;;14.10;10.13;;;21.20;99.90;;;;;;5032053;28;20492;-77
2021/09/09 06:29:08;;;;;;;14.50;10.23;;;21.40;99.90;;;;;;5031910;28;20664;-77
2021/09/09 06:31:33;;;;;;;19.70;10.33;;;21.70;99.90;;;;;;5039753;28;20217;-77
2021/09/09 06:33:59;;;;;;;11.10;9.40;;;22.10;99.90;;;;;;5013757;28;20185;-77
2021/09/09 06:36:24;;;;;;;16.93;10.30;;;22.70;99.90;;;;;;5032075;28;20178;-77
2021/09/09 06:38:50;;;;;;;15.10;8.53;;;23.20;99.90;;;;;;5031874;28;20180;-77
2021/09/09 06:41:15;;;;;;;13.73;8.40;;;23.20;99.90;;;;;;5031599;28;20202;-77
2021/09/09 06:43:41;;;;;;;11.80;8.33;;;23.10;99.90;;;;;;5014118;28;20213;-77
2021/09/09 06:46:07;;;;;;;13.43;8.27;;;22.70;99.90;;;;;;5031528;28;20177;-77
2021/09/09 06:48:32;;;;;;;14.53;9.07;;;22.60;99.90;;;;;;5031374;28;20223;-77
2021/09/09 06:51:01;;;;;;;12.87;8.67;;;22.10;99.90;;;;;;5031134;28;20190;-77
2021/09/09 06:53:26;;;;;;;10.20;8.43;;;21.90;99.90;;;;;;5031784;28;20543;-77
2021/09/09 06:55:52;;;;;;;14.13;8.30;;;21.90;99.90;;;;;;5031583;28;20412;-77
2021/09/09 06:58:17;;;;;;;13.20;9.57;;;22.20;99.90;;;;;;5031833;28;20177;-77
2021/09/09 07:00:43;;;;;;;9.43;8.13;;;22.90;99.90;;;;;;5031541;28;20564;-77
2021/09/09 07:03:09;;;;;;;14.13;8.50;;;23.50;99.90;;;;;;5031620;28;20590;-78
2021/09/09 07:05:35;;;;;;;10.03;7.80;;;24.10;99.90;;;;;;5031692;28;20466;-78
2021/09/09 07:08:00;;;;;;;9.60;8.70;;;24.70;99.90;;;;;;5031587;28;20925;-78
2021/09/09 07:10:26;;;;;;;8.83;7.13;;;25.30;99.90;;;;;;5031747;28;20209;-78
2021/09/09 07:12:52;;;;;;;8.57;7.60;;;25.40;99.90;;;;;;5013983;28;20178;-78
2021/09/09 07:15:17;;;;;;;9.20;8.30;;;25.50;99.90;;;;;;5031324;28;20173;-78
2021/09/09 07:17:43;;;;;;;14.37;8.80;;;25.50;99.90;;;;;;5031695;28;20181;-78
2021/09/09 07:20:10;;;;;;;10.10;7.50;;;25.90;99.90;;;;;;5031387;28;20300;-78
2021/09/09 07:22:36;;;;;;;18.30;7.50;;;26.00;99.90;;;;;;5031310;28;20293;-78
2021/09/09 07:25:02;;;;;;;8.17;7.33;;;26.10;99.90;;;;;;5013636;28;20475;-78
2021/09/09 07:27:28;;;;;;;8.40;7.57;;;26.40;99.90;;;;;;5031502;28;20191;-76
2021/09/09 07:29:53;;;;;;;7.03;6.33;;;26.80;99.90;;;;;;5031325;28;20173;-78
2021/09/09 07:32:19;;;;;;;7.90;7.20;;;27.00;99.90;;;;;;5031364;28;20460;-78
2021/09/09 07:34:44;;;;;;;7.83;7.03;;;27.30;99.90;;;;;;5031807;28;20178;-77
2021/09/09 07:37:10;;;;;;;7.40;6.67;;;27.60;99.90;;;;;;5031294;28;20178;-78
2021/09/09 07:39:36;;;;;;;7.60;6.90;;;27.60;99.90;;;;;;5031764;28;20178;-78
2021/09/09 07:42:01;;;;;;;8.53;7.40;;;27.70;99.90;;;;;;5031046;28;20236;-79
2021/09/09 07:44:27;;;;;;;8.37;7.20;;;27.40;99.90;;;;;;5031180;28;20174;-78
2021/09/09 07:46:52;;;;;;;8.30;7.53;;;27.60;99.90;;;;;;5031287;28;20369;-78
2021/09/09 07:49:18;;;;;;;7.27;6.57;;;27.90;99.90;;;;;;5031407;28;20174;-79
2021/09/09 07:51:45;;;;;;;9.53;7.13;;;28.00;99.90;;;;;;5031057;28;20197;-80
2021/09/09 07:54:11;;;;;;;8.43;6.17;;;28.30;99.90;;;;;;5013352;28;20186;-78
2021/09/09 07:56:37;;;;;;;6.40;5.90;;;28.60;99.90;;;;;;5031213;28;20417;-78
2021/09/09 07:59:03;;;;;;;7.37;6.70;;;28.70;99.90;;;;;;5033337;28;20536;-79
2021/09/09 08:01:28;;;;;;;11.53;7.10;;;28.30;99.90;;;;;;5034788;28;20229;-80
2021/09/09 08:03:54;;;;;;;6.67;6.00;;;28.10;99.90;;;;;;5034456;28;20255;-78
2021/09/09 08:06:20;;;;;;;7.37;6.53;;;27.60;99.90;;;;;;5016930;28;20184;-78
2021/09/09 08:08:45;;;;;;;7.23;6.50;;;27.40;99.90;;;;;;5034745;28;20193;-78
2021/09/09 08:11:11;;;;;;;8.03;6.53;;;26.90;99.90;;;;;;5034325;28;20437;-79
2021/09/09 08:13:37;;;;;;;7.60;6.80;;;26.70;99.90;;;;;;5034482;28;20564;-79
2021/09/09 08:16:03;;;;;;;13.57;7.03;;;26.50;99.90;;;;;;5034400;28;20220;-79
2021/09/09 08:18:29;;;;;;;6.80;6.07;;;26.60;99.90;;;;;;5016809;28;20497;-79
2021/09/09 08:20:55;;;;;;;7.90;7.20;;;26.60;99.90;;;;;;5034357;28;20433;-79
2021/09/09 08:23:22;;;;;;;8.20;5.70;;;26.40;99.90;;;;;;5036546;28;20284;-78
2021/09/09 08:25:47;;;;;;;7.50;6.30;;;26.20;99.90;;;;;;5035952;28;20177;-77
2021/09/09 08:28:17;;;;;;;6.50;5.90;;;26.20;99.90;;;;;;5034816;28;20772;-78
2021/09/09 08:30:43;;;;;;;7.50;6.20;;;26.10;99.90;;;;;;5040606;28;20548;-77
2021/09/09 08:33:09;;;;;;;7.20;6.50;;;26.00;99.90;;;;;;5054408;28;20424;-77
2021/09/09 08:35:34;;;;;;;7.57;6.87;;;26.00;99.90;;;;;;5054623;28;20798;-77
2021/09/09 08:38:00;;;;;;;7.37;6.67;;;25.70;99.90;;;;;;5054245;28;20181;-77
2021/09/09 08:40:27;;;;;;;12.53;6.80;;;25.60;99.90;;;;;;5053937;28;20170;-77
2021/09/09 08:42:52;;;;;;;7.50;6.90;;;25.70;99.90;;;;;;5053912;28;20215;-77
2021/09/09 08:45:18;;;;;;;6.70;6.20;;;25.70;99.90;;;;;;5054039;28;20778;-77
2021/09/09 08:47:47;;;;;;;9.23;7.17;;;26.20;99.90;;;;;;5036725;28;20210;-77
2021/09/09 08:50:13;;;;;;;18.20;6.70;;;26.40;99.90;;;;;;5054466;28;20189;-77
2021/09/09 08:52:39;;;;;;;6.53;6.03;;;26.90;99.90;;;;;;5054510;28;20447;-77
2021/09/09 08:55:06;;;;;;;9.63;6.30;;;27.50;99.90;;;;;;5054151;28;20414;-77
2021/09/09 08:57:32;;;;;;;6.27;5.67;;;28.10;99.90;;;;;;5053981;28;20450;-77
2021/09/09 09:00:01;;;;;;;6.50;6.00;;;28.50;99.90;;;;;;5053867;28;20446;-77
2021/09/09 09:02:27;;;;;;;7.47;6.63;;;29.00;99.90;;;;;;5036130;28;20464;-77
2021/09/09 09:05:04;;;;;;;8.10;6.10;;;29.30;99.90;;;;;;5036042;28;20481;-77
2021/09/09 09:07:35;;;;;;;6.00;5.30;;;29.20;99.90;;;;;;5036177;28;20179;-77
2021/09/09 09:10:04;;;;;;;6.07;5.57;;;29.60;99.90;;;;;;5053147;28;20916;-77
2021/09/09 09:12:50;;;;;;;10.90;6.80;;;29.70;99.90;;;;;;5053862;28;20481;-77
2021/09/09 09:15:23;;;;;;;9.33;6.30;;;30.10;99.90;;;;;;5053951;28;20450;-77
2021/09/09 09:18:10;;;;;;;7.93;6.67;;;30.20;99.90;;;;;;5054382;28;20818;-77
2021/09/09 09:20:52;;;;;;;6.73;5.83;;;30.20;99.90;;;;;;5054270;28;20432;-77
2021/09/09 09:23:24;;;;;;;9.03;6.70;;;30.30;99.90;;;;;;5053534;28;20822;-77
2021/09/09 09:25:58;;;;;;;8.13;6.43;;;30.10;99.90;;;;;;5054808;28;20444;-77
2021/09/09 09:28:54;;;;;;;7.10;6.20;;;30.10;99.90;;;;;;5054478;28;20420;-77
2021/09/09 09:31:29;;;;;;;10.23;6.20;;;30.40;99.90;;;;;;4995651;28;20453;-77
2021/09/09 09:34:00;;;;;;;6.37;5.77;;;30.50;99.90;;;;;;5034463;28;20411;-77
2021/09/09 09:36:28;;;;;;;7.60;6.40;;;30.30;99.90;;;;;;5035818;28;20463;-77
2021/09/09 09:39:14;;;;;;;7.20;5.93;;;30.90;99.90;;;;;;5035212;28;20493;-78
2021/09/09 09:41:56;;;;;;;7.57;5.70;;;31.50;99.90;;;;;;5034789;28;20944;-78
2021/09/09 09:44:36;;;;;;;5.73;5.00;;;31.50;99.90;;;;;;5035403;28;20419;-78
2021/09/09 09:47:13;;;;;;;6.00;5.50;;;31.30;99.90;;;;;;5033459;28;20424;-77
2021/09/09 09:49:44;;;;;;;6.90;6.20;;;31.20;99.90;;;;;;5033389;28;20908;-77
2021/09/09 09:52:19;;;;;;;6.57;5.77;;;31.20;99.90;;;;;;5033295;28;20447;-78
2021/09/09 09:54:49;;;;;;;6.33;5.67;;;31.50;99.90;;;;;;5033447;28;20757;-78
2021/09/09 09:57:15;;;;;;;8.93;6.30;;;31.00;99.90;;;;;;5015746;28;20429;-78
2021/09/09 09:59:41;;;;;;;5.80;5.30;;;30.60;99.90;;;;;;5033801;28;20440;-77
2021/09/09 10:02:10;;;;;;;7.80;7.17;;;29.90;99.90;;;;;;5033597;28;20720;-78
2021/09/09 10:04:36;;;;;;;6.47;5.60;;;29.90;99.90;;;;;;5033967;28;20408;-77
2021/09/09 10:07:01;;;;;;;7.90;6.17;;;30.40;99.90;;;;;;5035430;28;20479;-78
2021/09/09 10:09:28;;;;;;;6.53;5.93;;;30.90;99.90;;;;;;5032497;28;20265;-78
2021/09/09 10:11:53;;;;;;;6.93;5.50;;;31.30;99.90;;;;;;5032268;28;20550;-78
2021/09/09 10:14:22;;;;;;;7.10;5.53;;;31.50;99.90;;;;;;5032198;28;20412;-78
2021/09/09 10:16:50;;;;;;;7.53;5.90;;;32.10;99.90;;;;;;5032355;28;20224;-78
2021/09/09 10:19:24;;;;;;;6.23;5.70;;;32.20;99.90;;;;;;5032252;28;20447;-78
2021/09/09 10:21:53;;;;;;;7.43;5.90;;;31.70;99.90;;;;;;5031414;28;20474;-78
2021/09/09 10:24:28;;;;;;;5.90;5.50;;;32.20;99.90;;;;;;5014823;28;20563;-78
2021/09/09 10:27:14;;;;;;;6.47;5.83;;;32.20;99.90;;;;;;5032248;28;20412;-78
2021/09/09 10:29:43;;;;;;;6.20;5.00;;;31.80;99.90;;;;;;5032207;28;20427;-78
2021/09/09 10:32:29;;;;;;;6.03;5.63;;;32.10;99.90;;;;;;5032014;28;20900;-78
2021/09/09 10:35:20;;;;;;;6.23;5.63;;;32.00;99.90;;;;;;5032002;28;20425;-78
2021/09/09 10:37:53;;;;;;;5.53;5.03;;;31.90;99.90;;;;;;5014469;28;21055;-78
2021/09/09 10:40:39;;;;;;;6.30;4.97;;;31.40;99.90;;;;;;5032089;28;20417;-79
2021/09/09 10:43:06;;;;;;;5.63;5.07;;;31.00;99.90;;;;;;5032091;28;20963;-79
2021/09/09 10:45:43;;;;;;;10.10;6.07;;;30.70;99.90;;;;;;5032227;28;21027;-79
2021/09/09 10:48:20;;;;;;;5.87;5.47;;;31.30;99.90;;;;;;5032462;28;20959;-79
2021/09/09 10:51:00;;;;;;;6.63;6.03;;;31.70;99.90;;;;;;5032162;28;20436;-79
2021/09/09 10:53:42;;;;;;;6.53;5.33;;;32.40;99.90;;;;;;5032343;28;20770;-79
2021/09/09 10:56:19;;;;;;;5.97;5.33;;;32.60;99.90;;;;;;5031833;28;20417;-78
2021/09/09 10:58:45;;;;;;;8.73;5.83;;;32.90;99.90;;;;;;5032855;28;20415;-79
2021/09/09 11:01:12;;;;;;;7.67;5.27;;;32.50;99.90;;;;;;5032450;28;20499;-79
2021/09/09 11:03:48;;;;;;;5.40;4.90;;;32.40;99.90;;;;;;5032369;28;20416;-79
2021/09/09 11:06:22;;;;;;;7.07;4.30;;;32.50;99.90;;;;;;5014419;28;20427;-79
2021/09/09 11:08:53;;;;;;;4.33;3.93;;;32.40;99.90;;;;;;5032187;28;20413;-79
2021/09/09 11:11:24;;;;;;;5.17;4.67;;;32.50;99.90;;;;;;5014574;28;20445;-78
2021/09/09 11:14:00;;;;;;;5.50;4.30;;;32.80;99.90;;;;;;5014530;28;20987;-78
2021/09/09 11:16:31;;;;;;;4.60;4.20;;;33.10;99.90;;;;;;5031875;28;20408;-79
2021/09/09 11:18:57;;;;;;;5.50;5.00;;;33.00;99.90;;;;;;5032951;28;20913;-79
2021/09/09 11:21:30;;;;;;;6.93;6.23;;;33.10;99.90;;;;;;5031693;28;20429;-79
2021/09/09 11:24:01;;;;;;;7.00;6.40;;;32.70;99.90;;;;;;5032341;28;20413;-79
2021/09/09 11:26:27;;;;;;;9.07;6.07;;;32.70;99.90;;;;;;5032428;28;20429;-78
2021/09/09 11:28:54;;;;;;;6.90;6.30;;;32.50;99.90;;;;;;5032742;28;20436;-78
2021/09/09 11:31:28;;;;;;;11.20;5.97;;;32.70;99.90;;;;;;5044170;28;20568;-78
2021/09/09 11:33:53;;;;;;;7.20;5.90;;;32.60;99.90;;;;;;5055181;28;20404;-78
2021/09/09 11:36:21;;;;;;;5.93;5.33;;;32.50;99.90;;;;;;5057378;28;20411;-79
2021/09/09 11:38:48;;;;;;;11.23;6.30;;;32.00;99.90;;;;;;5056701;28;20264;-79
2021/09/09 11:41:17;;;;;;;6.10;5.57;;;31.70;99.90;;;;;;5056700;28;20469;-79
2021/09/09 11:43:54;;;;;;;6.47;5.97;;;31.80;99.90;;;;;;5056358;28;20412;-79
2021/09/09 11:46:24;;;;;;;6.30;5.60;;;31.80;99.90;;;;;;5056292;28;20411;-79
2021/09/09 11:48:52;;;;;;;6.27;5.67;;;31.50;99.90;;;;;;5056778;28;20423;-79
2021/09/09 11:51:41;;;;;;;5.50;5.10;;;31.30;99.90;;;;;;5057056;28;20442;-79
2021/09/09 11:54:18;;;;;;;5.90;5.30;;;31.00;99.90;;;;;;5056017;28;20408;-78
2021/09/09 11:56:44;;;;;;;4.90;4.20;;;31.10;99.90;;;;;;5055913;28;20405;-79
2021/09/09 11:59:18;;;;;;;5.20;4.90;;;31.00;99.90;;;;;;5056662;28;20404;-79
2021/09/09 12:01:50;;;;;;;5.67;5.17;;;30.90;99.90;;;;;;5055717;28;20467;-79
2021/09/09 12:04:21;;;;;;;4.70;4.30;;;30.70;99.90;;;;;;5056318;28;20786;-79
2021/09/09 12:06:47;;;;;;;4.73;4.33;;;30.50;99.90;;;;;;5038729;28;20408;-79
2021/09/09 12:09:37;;;;;;;4.27;4.07;;;30.20;99.90;;;;;;5056426;28;20784;-79
2021/09/09 12:12:03;;;;;;;5.20;4.53;;;30.20;99.90;;;;;;5056424;28;20520;-80
2021/09/09 12:14:29;;;;;;;5.63;4.10;;;30.40;99.90;;;;;;5039738;28;20458;-80
2021/09/09 12:17:12;;;;;;;5.23;4.73;;;30.40;99.90;;;;;;5056854;28;20231;-80
2021/09/09 12:19:50;;;;;;;5.00;4.70;;;30.60;99.90;;;;;;5058579;28;20598;-80
2021/09/09 12:22:15;;;;;;;5.03;4.60;;;30.70;99.90;;;;;;5059123;28;20491;-81
2021/09/09 12:24:41;;;;;;;4.57;4.17;;;30.60;99.90;;;;;;5063693;28;20424;-81
2021/09/09 12:27:06;;;;;;;4.30;3.60;;;30.70;99.90;;;;;;5061936;28;20633;-81
2021/09/09 12:29:38;;;;;;;5.60;5.10;;;30.50;99.90;;;;;;5057977;28;20575;-79
2021/09/09 12:32:28;;;;;;;5.00;4.50;;;30.40;99.90;;;;;;5020367;28;20301;-80
2021/09/09 12:35:13;;;;;;;6.80;3.90;;;30.30;99.90;;;;;;5036636;28;20409;-81
2021/09/09 12:37:38;;;;;;;4.60;4.20;;;30.10;99.90;;;;;;5036661;28;20466;-80
2021/09/09 12:40:04;;;;;;;5.33;3.87;;;30.00;99.90;;;;;;5036268;28;20901;-80
2021/09/09 12:42:31;;;;;;;4.73;3.87;;;30.00;99.90;;;;;;5036122;28;20209;-81
2021/09/09 12:44:56;;;;;;;5.53;5.03;;;30.20;99.90;;;;;;5035620;28;20803;-81
2021/09/09 12:47:22;;;;;;;6.77;4.60;;;30.40;99.90;;;;;;5036692;28;20412;-79
2021/09/09 12:49:47;;;;;;;5.50;5.00;;;30.60;99.90;;;;;;5017710;28;20184;-80
2021/09/09 12:52:14;;;;;;;8.53;4.70;;;30.30;99.90;;;;;;5034846;28;20205;-79
2021/09/09 12:54:45;;;;;;;5.43;4.93;;;30.30;99.90;;;;;;5035435;28;20185;-79
2021/09/09 12:57:11;;;;;;;6.57;5.40;;;30.00;99.90;;;;;;5035722;28;20421;-81
2021/09/09 12:59:37;;;;;;;8.30;5.77;;;30.00;99.90;;;;;;5035424;28;20417;-80
2021/09/09 13:02:02;;;;;;;6.17;4.97;;;30.00;99.90;;;;;;5035036;28;20609;-79
2021/09/09 13:04:31;;;;;;;7.33;5.40;;;29.50;99.90;;;;;;5034727;28;20669;-79
2021/09/09 13:06:57;;;;;;;6.20;5.67;;;29.10;99.90;;;;;;5034506;28;20473;-80
2021/09/09 13:09:25;;;;;;;5.67;5.20;;;29.30;99.90;;;;;;5017132;28;20420;-80
2021/09/09 13:11:50;;;;;;;7.53;5.03;;;29.20;99.90;;;;;;5034057;28;20448;-79
2021/09/09 13:14:16;;;;;;;6.47;5.63;;;29.30;99.90;;;;;;5034163;28;20431;-79
2021/09/09 13:16:42;;;;;;;7.67;6.13;;;29.20;99.90;;;;;;5034137;28;20216;-79
2021/09/09 13:19:10;;;;;;;6.13;5.53;;;29.20;99.90;;;;;;5033986;28;20264;-79
2021/09/09 13:21:36;;;;;;;6.83;5.20;;;29.10;99.90;;;;;;5033706;28;20228;-78
2021/09/09 13:24:02;;;;;;;8.97;5.20;;;28.80;99.90;;;;;;5016050;28;20483;-78
2021/09/09 13:26:29;;;;;;;5.90;5.37;;;28.60;99.90;;;;;;5033940;28;20277;-79
2021/09/09 13:28:55;;;;;;;5.97;5.37;;;28.50;99.90;;;;;;5033682;28;20428;-79
2021/09/09 13:31:23;;;;;;;5.53;5.03;;;28.50;99.90;;;;;;5045300;28;20448;-78
2021/09/09 13:33:53;;;;;;;6.63;4.40;;;28.50;99.90;;;;;;5035881;28;20173;-80
2021/09/09 13:36:19;;;;;;;7.20;4.63;;;28.30;99.90;;;;;;5053723;28;20411;-79
2021/09/09 13:38:46;;;;;;;4.40;4.00;;;27.90;99.90;;;;;;5035923;28;20416;-79
2021/09/09 13:41:11;;;;;;;5.10;3.97;;;27.70;99.90;;;;;;5053244;28;20439;-79
2021/09/09 13:43:37;;;;;;;6.37;4.57;;;27.70;99.90;;;;;;5053253;28;20505;-79
2021/09/09 13:46:03;;;;;;;4.77;3.97;;;27.70;99.90;;;;;;5053050;28;20703;-79
2021/09/09 13:48:29;;;;;;;9.70;4.33;;;27.70;99.90;;;;;;5053423;28;20177;-79
2021/09/09 13:50:55;;;;;;;6.83;4.80;;;27.80;99.90;;;;;;5052893;28;20197;-79
2021/09/09 13:53:20;;;;;;;8.27;4.43;;;27.80;99.90;;;;;;5053133;28;20590;-79
2021/09/09 13:55:48;;;;;;;6.53;4.87;;;27.80;99.90;;;;;;5052705;28;20441;-79
2021/09/09 13:58:14;;;;;;;7.00;5.17;;;27.80;99.90;;;;;;5034845;28;20220;-79
2021/09/09 14:00:39;;;;;;;4.97;4.17;;;27.80;99.90;;;;;;5052764;28;20955;-78
2021/09/09 14:03:05;;;;;;;9.93;4.97;;;27.80;99.90;;;;;;5034363;28;20576;-78
2021/09/09 14:05:31;;;;;;;5.13;4.50;;;27.70;99.90;;;;;;5052656;28;20205;-78
2021/09/09 14:07:57;;;;;;;6.57;4.20;;;27.70;99.90;;;;;;5052249;28;20231;-78
2021/09/09 14:10:23;;;;;;;5.37;4.50;;;27.60;99.90;;;;;;5052369;28;20407;-78
2021/09/09 14:12:48;;;;;;;5.10;4.40;;;27.60;99.90;;;;;;5052187;28;20173;-79
2021/09/09 14:15:18;;;;;;;8.73;4.90;;;27.60;99.90;;;;;;5052321;28;20177;-78
2021/09/09 14:17:44;;;;;;;6.43;4.67;;;27.60;99.90;;;;;;5052542;28;20192;-78
2021/09/09 14:20:10;;;;;;;5.20;4.80;;;27.60;99.90;;;;;;5052123;28;20911;-78
2021/09/09 14:22:37;;;;;;;4.90;4.50;;;27.50;99.90;;;;;;5052161;28;20759;-78
2021/09/09 14:25:05;;;;;;;5.23;4.50;;;27.60;99.90;;;;;;5052233;28;20413;-78
2021/09/09 14:27:31;;;;;;;5.50;5.10;;;27.60;99.90;;;;;;5052167;28;20469;-78
2021/09/09 14:29:57;;;;;;;5.23;4.70;;;27.50;99.90;;;;;;5052149;28;20419;-78
2021/09/09 14:32:23;;;;;;;8.53;4.40;;;27.50;99.90;;;;;;5051832;28;20208;-78
2021/09/09 14:34:49;;;;;;;5.00;4.60;;;27.40;99.90;;;;;;5052080;28;20443;-78
2021/09/09 14:37:14;;;;;;;9.40;5.40;;;27.40;99.90;;;;;;5051826;28;20185;-78
2021/09/09 14:39:41;;;;;;;6.67;5.27;;;27.30;99.90;;;;;;5052220;28;20181;-78
2021/09/09 14:42:07;;;;;;;7.20;5.17;;;27.30;99.90;;;;;;5051638;28;20234;-78
2021/09/09 14:44:33;;;;;;;5.00;4.50;;;27.10;99.90;;;;;;5051865;28;20944;-78
2021/09/09 14:47:00;;;;;;;8.10;4.90;;;27.10;99.90;;;;;;5052077;28;20415;-76
2021/09/09 14:49:26;;;;;;;7.27;5.20;;;27.20;99.90;;;;;;5051956;28;20270;-77
2021/09/09 14:51:52;;;;;;;5.53;4.93;;;27.10;99.90;;;;;;5051656;28;20439;-77
2021/09/09 14:54:17;;;;;;;8.80;5.63;;;27.10;99.90;;;;;;5033897;28;20423;-78
2021/09/09 14:56:43;;;;;;;5.47;4.97;;;27.00;99.90;;;;;;5051779;28;20235;-78
2021/09/09 14:59:09;;;;;;;7.43;5.60;;;26.90;99.90;;;;;;5051667;28;20181;-78
2021/09/09 15:01:34;;;;;;;5.60;4.97;;;26.90;99.90;;;;;;5051503;28;20272;-77
2021/09/09 15:04:00;;;;;;;6.13;5.37;;;27.00;99.90;;;;;;5051636;28;20210;-78
2021/09/09 15:06:25;;;;;;;6.43;5.83;;;27.10;99.90;;;;;;5051368;28;20173;-77
2021/09/09 15:08:51;;;;;;;7.53;6.63;;;27.10;99.90;;;;;;5053745;28;20212;-77
2021/09/09 15:11:17;;;;;;;4.53;4.23;;;27.20;99.90;;;;;;5055458;28;20208;-77
2021/09/09 15:13:42;;;;;;;5.30;4.80;;;27.10;99.90;;;;;;5056219;28;20538;-77
2021/09/09 15:16:08;;;;;;;7.00;4.50;;;27.00;99.90;;;;;;5055405;28;20184;-76
2021/09/09 15:18:34;;;;;;;7.20;4.80;;;27.00;99.90;;;;;;5055666;28;20181;-77
2021/09/09 15:21:00;;;;;;;6.73;6.03;;;26.80;99.90;;;;;;5055404;28;20193;-77
2021/09/09 15:23:26;;;;;;;5.10;4.70;;;26.70;99.90;;;;;;5055443;28;20584;-77
2021/09/09 15:25:53;;;;;;;10.80;5.50;;;26.60;99.90;;;;;;5037435;28;20504;-77
2021/09/09 15:28:19;;;;;;;7.27;4.87;;;26.40;99.90;;;;;;5055524;28;20412;-76
2021/09/09 15:30:44;;;;;;;4.87;4.47;;;26.30;99.90;;;;;;5055365;28;20473;-76
2021/09/09 15:33:10;;;;;;;6.00;5.10;;;26.20;99.90;;;;;;5055324;28;20649;-75
2021/09/09 15:35:36;;;;;;;5.70;5.10;;;26.10;99.90;;;;;;5054980;28;20212;-76
2021/09/09 15:38:02;;;;;;;5.17;4.40;;;26.00;99.90;;;;;;5037380;28;20416;-76
2021/09/09 15:40:28;;;;;;;9.27;5.67;;;26.00;99.90;;;;;;5055085;28;20196;-77
2021/09/09 15:42:55;;;;;;;14.47;5.00;;;26.00;99.90;;;;;;5054821;28;20459;-76
2021/09/09 15:45:22;;;;;;;6.20;5.60;;;25.90;99.90;;;;;;5055074;28;20166;-76
2021/09/09 15:47:48;;;;;;;5.43;4.53;;;25.80;99.90;;;;;;5054769;28;20403;-77
2021/09/09 15:50:14;;;;;;;5.73;5.23;;;25.60;99.90;;;;;;5054867;28;20911;-77
2021/09/09 15:52:41;;;;;;;8.47;5.47;;;25.50;99.90;;;;;;5055339;28;20439;-79
2021/09/09 15:55:06;;;;;;;5.50;4.93;;;25.40;99.90;;;;;;5055796;28;20423;-79
2021/09/09 15:57:32;;;;;;;5.87;5.37;;;25.30;99.90;;;;;;5055323;28;20416;-79
2021/09/09 16:00:00;;;;;;;5.50;5.10;;;25.20;99.90;;;;;;5055949;28;20179;-80
2021/09/09 16:02:26;;;;;;;4.63;4.13;;;25.10;99.90;;;;;;5055329;28;20296;-80
2021/09/09 16:04:51;;;;;;;10.57;6.13;;;25.00;99.90;;;;;;5054800;28;20445;-79
2021/09/09 16:07:17;;;;;;;7.93;4.50;;;24.80;99.90;;;;;;5055461;28;20207;-79
2021/09/09 16:09:42;;;;;;;7.67;5.40;;;24.80;99.90;;;;;;5054791;28;20247;-79
2021/09/09 16:12:08;;;;;;;5.80;4.80;;;24.80;99.90;;;;;;5054277;28;20197;-79
2021/09/09 16:14:33;;;;;;;5.47;4.97;;;24.70;99.90;;;;;;5054826;28;20181;-79
2021/09/09 16:16:59;;;;;;;8.07;5.73;;;24.50;99.90;;;;;;5054207;28;20645;-79
2021/09/09 16:19:25;;;;;;;4.37;4.07;;;24.50;99.90;;;;;;5054506;28;20174;-80
2021/09/09 16:21:50;;;;;;;8.00;5.30;;;24.50;99.90;;;;;;5054224;28;20215;-79
2021/09/09 16:24:16;;;;;;;6.53;4.87;;;24.40;99.90;;;;;;5054379;28;20264;-79
2021/09/09 16:26:42;;;;;;;5.20;4.67;;;24.30;99.90;;;;;;5054208;28;20188;-79
2021/09/09 16:29:07;;;;;;;6.50;4.37;;;24.30;99.90;;;;;;5053915;28;20173;-79
2021/09/09 16:31:33;;;;;;;4.87;4.47;;;24.20;99.90;;;;;;5022935;28;20704;-79
2021/09/09 16:33:59;;;;;;;7.50;4.70;;;24.20;99.90;;;;;;5034039;28;20301;-79
2021/09/09 16:36:25;;;;;;;5.90;5.40;;;24.10;99.90;;;;;;5034215;28;20179;-79
2021/09/09 16:38:51;;;;;;;14.47;5.30;;;24.10;99.90;;;;;;5034096;28;20182;-79
2021/09/09 16:41:17;;;;;;;10.10;5.40;;;24.10;99.90;;;;;;5034057;28;20440;-79
2021/09/09 16:43:43;;;;;;;7.57;5.27;;;24.00;99.90;;;;;;5034071;28;20471;-79
2021/09/09 16:46:09;;;;;;;7.27;6.37;;;23.90;99.90;;;;;;5034291;28;20825;-79
2021/09/09 16:48:34;;;;;;;7.97;6.10;;;23.90;99.90;;;;;;5034031;28;20179;-80
2021/09/09 16:51:00;;;;;;;11.80;6.07;;;23.80;99.90;;;;;;5033775;28;20194;-79
2021/09/09 16:53:25;;;;;;;6.10;5.50;;;23.80;99.90;;;;;;5033879;28;20255;-79
2021/09/09 16:55:52;;;;;;;9.83;6.43;;;23.80;99.90;;;;;;5033850;28;20185;-79
2021/09/09 16:58:21;;;;;;;5.70;5.20;;;23.70;99.90;;;;;;5033957;28;20192;-79
2021/09/09 17:00:50;;;;;;;9.57;5.83;;;23.60;99.90;;;;;;5033702;28;20444;-79
2021/09/09 17:03:16;;;;;;;13.33;6.23;;;23.50;99.90;;;;;;5033462;28;20832;-79
2021/09/09 17:05:43;;;;;;;11.83;5.87;;;23.50;99.90;;;;;;5033952;28;20408;-79
2021/09/09 17:08:09;;;;;;;9.10;5.47;;;23.40;99.90;;;;;;5033603;28;20448;-79
2021/09/09 17:10:35;;;;;;;6.10;5.23;;;23.40;99.90;;;;;;5034912;28;20836;-79
2021/09/09 17:13:01;;;;;;;12.00;5.60;;;23.30;99.90;;;;;;5035103;28;20421;-79
2021/09/09 17:15:26;;;;;;;12.33;5.50;;;23.20;99.90;;;;;;5016713;28;20542;-79
2021/09/09 17:17:54;;;;;;;9.07;5.97;;;23.10;99.90;;;;;;5034930;28;20203;-79